Adelsoe, Sweden

1:23 PM CET on December 18, 2014 (GMT +0100)
Kvartsstigen | Change Station
CLOSE
Current Station
Personal Weather Station
Location: Stenhamra, Stockholms lšn
Elevation: 141 ft
Nearby Weather Stations

Elev 141 ft 59.34 °N, 17.68 °E | Updated 33 seconds ago

Overcast
Overcast
36.0 °F
Feels Like 36 °F
N
1.6
Wind Variable Wind from ENE
Gusts 4.9 mph

Today
High -- | Low -- °F
--% Chance of Precip.
Yesterday
High -- | Low -- °F
Precip. -- in
8:43 AM 2:49 PM
Waning Crescent, 15% visible
Pressure 29.36 in
Visibility 5.0 miles
Clouds Overcast 600 ft
Windchill 36 °F
Dew Point 36 °F
Humidity 98%
Rainfall 0.04 in
Snow Depth Not available.
UV 0.0 out of 12
Pollen Not available.
Air Quality Not available.
Flu Activity Not available.
METAR ESSB 181150Z 21007KT 8000 BR OVC006 02/02 Q0994 R12/29//79

More Conditions Fewer Conditions

Pressure 29.36 in
Visibility 5.0 miles
Clouds Overcast 600 ft
Windchill 36 °F
Dew Point 36 °F
Humidity 98%
Rainfall 0.04 in
Snow Depth Not available.
UV 0.0 out of 12
Pollen Not available.
Air Quality Not available.
Flu Activity Not available.
METAR ESSB 181150Z 21007KT 8000 BR OVC006 02/02 Q0994 R12/29//79

More Conditions Fewer Conditions

10-Day Weather Forecast

Almanac

Astronomy

Dec. 18, 2014 Rise Set
Actual Time
Civil Twilight
Nautical Twilight
Astronomical Twilight
Moon
Length of Visible Light
Length of Day
Tomorrow will be .
, % of the Moon is Illuminated

Today's Extremes

Country Highs Country Lows

Community

WunderPhotos

Upload Photos

1,778,923 photos uploaded!

WunderBlogs® & News

Nearby

Air Quality

  Air Quality AQ Index Pollutant
Not available.

Snow Depth

Station Depth Elevation

Earthquake Activity

City Distance Mag. Time & Date
Minimum magnitude displayed is 2.5.

Coastal Water Temperatures

Place Temperature

Nearby Weather Stations